Flight Track Log - Related Links

Times and Time Zones

All times are in EDT time to prevent confusion due to time zone crossing. See the ASQ4633 flight status page for this flight to view local times or setup timezone preferences in your user account.

Time Position Orientation Groundspeed Altitude Reporting Facility
EDT Latitude Longitude Course Direction KTS MPH feet Rate Location/Type
Thu 04:45:20 PM 40.6333 -74.2000 27° Northeast 192 221 2,600  Level New York TRACON
Thu 04:46:20 PM 40.6500 -74.2500 294° West 234 269 5,000 1,700 Climbing New York TRACON
Thu 04:47:20 PM 40.7000 -74.2000 37° Northeast 262 302 6,000 1,250 Climbing New York TRACON
Thu 04:48:00 PM 40.9877 -73.8289 37° Northeast  Level FlightAware Approximate
Thu 04:48:20 PM 40.7333 -74.1167 62° Northeast 266 306 7,500  Level New York TRACON
Thu 04:49:00 PM 41.0669 -73.7415 40° Northeast  Level FlightAware Approximate
Thu 04:49:52 PM 40.7953 -73.9944 56° Northeast 285 328 10,000  Level Boston Center
Thu 04:50:00 PM 41.1475 -73.6572 27° Northeast  Level FlightAware Approximate
Thu 04:50:52 PM 40.8447 -73.8886 58° Northeast 307 353 11,600  Level Boston Center
Thu 04:51:52 PM 40.9186 -73.8053 40° Northeast 331 381 13,100 1,500 Climbing Boston Center
Thu 04:52:52 PM 41.0008 -73.7356 33° Northeast 337 388 14,600 1,550 Climbing Boston Center
Thu 04:53:52 PM 41.0975 -73.6519 33° Northeast 362 417 16,200 1,300 Climbing Boston Center
Thu 04:54:52 PM 41.1692 -73.5872 34° Northeast 374 430 17,200 850 Climbing Boston Center
Thu 04:55:52 PM 41.2533 -73.5114 34° Northeast 397 457 17,900 1,000 Climbing Boston Center
Thu 04:56:52 PM 41.3750 -73.4083 32° Northeast 411 473 19,200 1,150 Climbing Boston Center
Thu 04:57:52 PM 41.4758 -73.3183 34° Northeast 429 494 20,200 1,050 Climbing Boston Center
Thu 04:58:52 PM 41.5642 -73.2031 44° Northeast 438 504 21,300 1,100 Climbing Boston Center
Thu 04:59:52 PM 41.6731 -73.1264 28° Northeast 429 494 22,400 1,050 Climbing Boston Center
Thu 05:00:52 PM 41.7939 -73.1361 357° North 408 470 23,400 1,000 Climbing Boston Center
Thu 05:01:52 PM 41.9147 -73.1597 352° North 414 476 24,400 800 Climbing Boston Center
Thu 05:02:52 PM 42.0353 -73.1781 354° North 426 490 25,000 300 Climbing Boston Center
Thu 05:03:52 PM 42.1747 -73.2019 353° North 442 509 25,000  Level Boston Center
Thu 05:04:52 PM 42.3017 -73.2542 343° North 447 514 25,000  Level Boston Center
Thu 05:05:52 PM 42.4283 -73.2953 347° North 452 520 25,000  Level Boston Center
Thu 05:06:52 PM 42.5594 -73.3167 353° North 458 527 25,000  Level Boston Center
Thu 05:07:52 PM 42.6969 -73.3328 355° North 477 549 25,000  Level Boston Center
Thu 05:08:52 PM 42.8075 -73.3400 357° North 483 556 25,000  Level Boston Center
Thu 05:09:52 PM 42.9719 -73.3453 359° North 488 562 25,000  Level Boston Center
Thu 05:10:52 PM 43.1075 -73.3331 North 488 562 25,000  Level Boston Center
Thu 05:11:52 PM 43.2472 -73.3181 North 488 562 25,000  Level Boston Center
Thu 05:12:52 PM 43.3831 -73.3000 North 494 568 25,000 -650 Level Boston Center
Thu 05:13:52 PM 43.5017 -73.2872 North 494 568 23,700 -1,550 Descending Boston Center
Thu 05:14:52 PM 43.6269 -73.2719 North 472 543 21,900 -2,300 Descending Boston Center
Thu 05:15:52 PM 43.7625 -73.2564 North 447 514 19,100 -2,450 Descending Boston Center
Thu 05:16:52 PM 43.8731 -73.2464 North 416 479 17,000 -2,100 Descending Boston Center
Thu 05:17:52 PM 43.9711 -73.2333 North 369 425 14,900 -2,150 Descending Boston Center
Thu 05:18:52 PM 44.0608 -73.2231 North 333 383 12,700 -2,100 Descending Boston Center
Thu 05:19:52 PM 44.1419 -73.2269 358° North 302 348 10,700 -1,850 Descending Boston Center
Thu 05:20:52 PM 44.2169 -73.2367 355° North 279 321 9,000 -1,650 Descending Boston Center
Thu 05:21:52 PM 44.2856 -73.2636 344° North 260 299 7,400 -1,600 Descending Boston Center
Thu 05:22:52 PM 44.3500 -73.2850 347° North 242 278 5,800 -1,600 Descending Boston Center
Thu 05:23:52 PM 44.4103 -73.3031 348° North 232 267 4,200 -1,600 Descending Boston Center
Thu 05:24:52 PM 44.4706 -73.3128 353° North 221 254 2,600 -1,100 Descending Boston Center
Thu 05:25:52 PM 44.5147 -73.2639 38° Northeast 205 236 2,000 -600 Descending Boston Center

Login

Don't have an account? Register now (free) for customized features, flight alerts, and more!